sensor_id;sensor_type;location;lat;lon;timestamp;P1;durP1;ratioP1;P2;durP2;ratioP2
28174;SDS011;59417;44.788;10.334;2022-09-09T00:04:05;18.10;;;12.43;;
28174;SDS011;59417;44.788;10.334;2022-09-09T00:09:31;13.13;;;11.50;;
28174;SDS011;59417;44.788;10.334;2022-09-09T00:12:54;15.23;;;11.65;;
28174;SDS011;59417;44.788;10.334;2022-09-09T00:15:26;19.88;;;11.40;;
28174;SDS011;59417;44.788;10.334;2022-09-09T00:21:33;15.27;;;11.90;;
28174;SDS011;59417;44.788;10.334;2022-09-09T00:24:04;19.42;;;12.00;;
28174;SDS011;59417;44.788;10.334;2022-09-09T00:26:42;15.27;;;11.85;;
28174;SDS011;59417;44.788;10.334;2022-09-09T00:31:37;15.50;;;11.95;;
28174;SDS011;59417;44.788;10.334;2022-09-09T00:36:36;14.18;;;12.35;;
28174;SDS011;59417;44.788;10.334;2022-09-09T00:39:03;14.18;;;11.75;;
28174;SDS011;59417;44.788;10.334;2022-09-09T00:49:52;16.30;;;12.13;;
28174;SDS011;59417;44.788;10.334;2022-09-09T00:55:17;16.58;;;11.43;;
28174;SDS011;59417;44.788;10.334;2022-09-09T00:57:52;16.90;;;13.23;;
28174;SDS011;59417;44.788;10.334;2022-09-09T01:00:32;21.02;;;12.32;;
28174;SDS011;59417;44.788;10.334;2022-09-09T01:08:16;14.73;;;11.63;;
28174;SDS011;59417;44.788;10.334;2022-09-09T01:10:53;17.60;;;11.60;;
28174;SDS011;59417;44.788;10.334;2022-09-09T01:13:27;16.58;;;11.63;;
28174;SDS011;59417;44.788;10.334;2022-09-09T01:16:06;13.35;;;11.00;;
28174;SDS011;59417;44.788;10.334;2022-09-09T01:18:46;16.35;;;10.77;;
28174;SDS011;59417;44.788;10.334;2022-09-09T01:21:22;18.50;;;11.23;;
28174;SDS011;59417;44.788;10.334;2022-09-09T01:29:48;14.85;;;8.80;;
28174;SDS011;59417;44.788;10.334;2022-09-09T01:35:14;9.90;;;6.43;;
28174;SDS011;59417;44.788;10.334;2022-09-09T01:37:52;6.88;;;5.47;;
28174;SDS011;59417;44.788;10.334;2022-09-09T01:40:18;8.57;;;4.78;;
28174;SDS011;59417;44.788;10.334;2022-09-09T01:42:46;7.30;;;3.83;;
28174;SDS011;59417;44.788;10.334;2022-09-09T01:45:12;6.43;;;3.83;;
28174;SDS011;59417;44.788;10.334;2022-09-09T01:47:37;6.00;;;4.20;;
28174;SDS011;59417;44.788;10.334;2022-09-09T01:50:16;8.15;;;4.28;;
28174;SDS011;59417;44.788;10.334;2022-09-09T01:52:43;7.68;;;4.00;;
28174;SDS011;59417;44.788;10.334;2022-09-09T01:55:14;12.82;;;4.60;;
28174;SDS011;59417;44.788;10.334;2022-09-09T01:58:45;7.95;;;4.47;;
28174;SDS011;59417;44.788;10.334;2022-09-09T02:00:41;9.43;;;4.13;;
28174;SDS011;59417;44.788;10.334;2022-09-09T02:09:06;9.13;;;4.20;;
28174;SDS011;59417;44.788;10.334;2022-09-09T02:11:35;6.88;;;4.03;;
28174;SDS011;59417;44.788;10.334;2022-09-09T02:14:10;7.32;;;3.60;;
28174;SDS011;59417;44.788;10.334;2022-09-09T02:16:44;5.97;;;4.00;;
28174;SDS011;59417;44.788;10.334;2022-09-09T02:19:19;6.95;;;3.60;;
28174;SDS011;59417;44.788;10.334;2022-09-09T02:22:02;6.53;;;4.03;;
28174;SDS011;59417;44.788;10.334;2022-09-09T02:24:30;10.50;;;3.95;;
28174;SDS011;59417;44.788;10.334;2022-09-09T02:27:10;5.47;;;3.45;;
28174;SDS011;59417;44.788;10.334;2022-09-09T02:29:41;5.30;;;2.75;;
28174;SDS011;59417;44.788;10.334;2022-09-09T02:32:11;3.22;;;2.38;;
28174;SDS011;59417;44.788;10.334;2022-09-09T02:34:41;5.50;;;2.47;;
28174;SDS011;59417;44.788;10.334;2022-09-09T02:37:10;4.90;;;2.20;;
28174;SDS011;59417;44.788;10.334;2022-09-09T02:39:39;8.43;;;2.85;;
28174;SDS011;59417;44.788;10.334;2022-09-09T02:42:08;7.82;;;2.40;;
28174;SDS011;59417;44.788;10.334;2022-09-09T02:44:36;4.95;;;2.15;;
28174;SDS011;59417;44.788;10.334;2022-09-09T02:50:15;5.30;;;2.28;;
28174;SDS011;59417;44.788;10.334;2022-09-09T02:55:52;7.65;;;2.05;;
28174;SDS011;59417;44.788;10.334;2022-09-09T02:58:23;4.32;;;2.00;;
28174;SDS011;59417;44.788;10.334;2022-09-09T03:00:57;3.75;;;1.80;;
28174;SDS011;59417;44.788;10.334;2022-09-09T03:03:24;6.18;;;2.30;;
28174;SDS011;59417;44.788;10.334;2022-09-09T03:05:51;5.05;;;2.40;;
28174;SDS011;59417;44.788;10.334;2022-09-09T03:08:16;4.35;;;2.05;;
28174;SDS011;59417;44.788;10.334;2022-09-09T03:10:46;5.72;;;2.00;;
28174;SDS011;59417;44.788;10.334;2022-09-09T03:13:13;5.60;;;2.50;;
28174;SDS011;59417;44.788;10.334;2022-09-09T03:15:41;5.10;;;2.08;;
28174;SDS011;59417;44.788;10.334;2022-09-09T03:18:10;4.57;;;1.97;;
28174;SDS011;59417;44.788;10.334;2022-09-09T03:20:35;5.15;;;1.73;;
28174;SDS011;59417;44.788;10.334;2022-09-09T03:23:01;5.45;;;1.95;;
28174;SDS011;59417;44.788;10.334;2022-09-09T03:25:27;4.15;;;1.90;;
28174;SDS011;59417;44.788;10.334;2022-09-09T03:27:54;3.53;;;2.08;;
28174;SDS011;59417;44.788;10.334;2022-09-09T03:30:25;3.00;;;2.15;;
28174;SDS011;59417;44.788;10.334;2022-09-09T03:32:54;3.90;;;1.90;;
28174;SDS011;59417;44.788;10.334;2022-09-09T03:35:22;2.85;;;2.05;;
28174;SDS011;59417;44.788;10.334;2022-09-09T03:37:47;3.88;;;1.90;;
28174;SDS011;59417;44.788;10.334;2022-09-09T03:40:14;3.42;;;1.65;;
28174;SDS011;59417;44.788;10.334;2022-09-09T03:42:44;3.55;;;1.80;;
28174;SDS011;59417;44.788;10.334;2022-09-09T03:45:11;4.28;;;2.17;;
28174;SDS011;59417;44.788;10.334;2022-09-09T03:50:06;5.95;;;2.13;;
28174;SDS011;59417;44.788;10.334;2022-09-09T03:52:36;4.32;;;1.50;;
28174;SDS011;59417;44.788;10.334;2022-09-09T03:55:11;3.05;;;1.77;;
28174;SDS011;59417;44.788;10.334;2022-09-09T03:57:37;2.83;;;1.77;;
28174;SDS011;59417;44.788;10.334;2022-09-09T04:00:07;3.42;;;1.60;;
28174;SDS011;59417;44.788;10.334;2022-09-09T04:02:41;10.43;;;1.95;;
28174;SDS011;59417;44.788;10.334;2022-09-09T04:05:10;5.47;;;1.70;;
28174;SDS011;59417;44.788;10.334;2022-09-09T04:07:39;9.45;;;2.17;;
28174;SDS011;59417;44.788;10.334;2022-09-09T04:10:04;3.72;;;1.95;;
28174;SDS011;59417;44.788;10.334;2022-09-09T04:12:31;7.40;;;2.08;;
28174;SDS011;59417;44.788;10.334;2022-09-09T04:14:57;2.45;;;1.55;;
28174;SDS011;59417;44.788;10.334;2022-09-09T04:17:22;9.55;;;1.88;;
28174;SDS011;59417;44.788;10.334;2022-09-09T04:19:49;5.43;;;2.17;;
28174;SDS011;59417;44.788;10.334;2022-09-09T04:22:15;4.43;;;1.83;;
28174;SDS011;59417;44.788;10.334;2022-09-09T04:24:41;3.95;;;1.52;;
28174;SDS011;59417;44.788;10.334;2022-09-09T04:27:07;1.75;;;1.40;;
28174;SDS011;59417;44.788;10.334;2022-09-09T04:29:34;4.93;;;1.80;;
28174;SDS011;59417;44.788;10.334;2022-09-09T04:32:00;6.10;;;2.70;;
28174;SDS011;59417;44.788;10.334;2022-09-09T04:34:26;4.82;;;1.85;;
28174;SDS011;59417;44.788;10.334;2022-09-09T04:36:53;5.43;;;1.95;;
28174;SDS011;59417;44.788;10.334;2022-09-09T04:39:20;4.82;;;2.00;;
28174;SDS011;59417;44.788;10.334;2022-09-09T04:41:47;5.93;;;1.98;;
28174;SDS011;59417;44.788;10.334;2022-09-09T04:44:14;5.68;;;2.13;;
28174;SDS011;59417;44.788;10.334;2022-09-09T04:46:39;3.38;;;1.73;;
28174;SDS011;59417;44.788;10.334;2022-09-09T04:49:06;5.97;;;2.22;;
28174;SDS011;59417;44.788;10.334;2022-09-09T04:51:33;5.38;;;2.10;;
28174;SDS011;59417;44.788;10.334;2022-09-09T04:53:58;7.55;;;2.38;;
28174;SDS011;59417;44.788;10.334;2022-09-09T04:56:24;4.93;;;1.90;;
28174;SDS011;59417;44.788;10.334;2022-09-09T04:58:56;5.72;;;1.83;;
28174;SDS011;59417;44.788;10.334;2022-09-09T05:01:30;2.08;;;1.63;;
28174;SDS011;59417;44.788;10.334;2022-09-09T05:04:02;8.13;;;2.17;;
28174;SDS011;59417;44.788;10.334;2022-09-09T05:06:28;13.05;;;3.25;;
28174;SDS011;59417;44.788;10.334;2022-09-09T05:08:57;6.68;;;2.15;;
28174;SDS011;59417;44.788;10.334;2022-09-09T05:11:28;4.72;;;1.75;;
28174;SDS011;59417;44.788;10.334;2022-09-09T05:14:09;5.90;;;2.30;;
28174;SDS011;59417;44.788;10.334;2022-09-09T05:16:36;4.97;;;1.50;;
28174;SDS011;59417;44.788;10.334;2022-09-09T05:19:03;6.45;;;2.10;;
28174;SDS011;59417;44.788;10.334;2022-09-09T05:21:40;5.65;;;1.90;;
28174;SDS011;59417;44.788;10.334;2022-09-09T05:24:07;2.83;;;1.70;;
28174;SDS011;59417;44.788;10.334;2022-09-09T05:26:33;6.65;;;2.45;;
28174;SDS011;59417;44.788;10.334;2022-09-09T05:29:00;4.57;;;2.00;;
28174;SDS011;59417;44.788;10.334;2022-09-09T05:31:29;6.00;;;1.60;;
28174;SDS011;59417;44.788;10.334;2022-09-09T05:33:55;3.97;;;2.00;;
28174;SDS011;59417;44.788;10.334;2022-09-09T05:36:22;4.03;;;1.60;;
28174;SDS011;59417;44.788;10.334;2022-09-09T05:38:51;4.72;;;1.80;;
28174;SDS011;59417;44.788;10.334;2022-09-09T05:41:21;6.55;;;1.83;;
28174;SDS011;59417;44.788;10.334;2022-09-09T05:43:49;4.60;;;1.75;;
28174;SDS011;59417;44.788;10.334;2022-09-09T05:46:18;5.68;;;2.30;;
28174;SDS011;59417;44.788;10.334;2022-09-09T05:48:47;4.03;;;1.95;;
28174;SDS011;59417;44.788;10.334;2022-09-09T05:51:17;3.20;;;1.87;;
28174;SDS011;59417;44.788;10.334;2022-09-09T05:53:46;3.03;;;2.00;;
28174;SDS011;59417;44.788;10.334;2022-09-09T05:56:14;7.00;;;2.00;;
28174;SDS011;59417;44.788;10.334;2022-09-09T05:58:41;7.67;;;2.53;;
28174;SDS011;59417;44.788;10.334;2022-09-09T06:01:14;5.20;;;2.15;;
28174;SDS011;59417;44.788;10.334;2022-09-09T06:03:42;6.65;;;2.15;;
28174;SDS011;59417;44.788;10.334;2022-09-09T06:06:09;7.30;;;2.30;;
28174;SDS011;59417;44.788;10.334;2022-09-09T06:08:39;3.75;;;2.13;;
28174;SDS011;59417;44.788;10.334;2022-09-09T06:11:07;9.85;;;1.83;;
28174;SDS011;59417;44.788;10.334;2022-09-09T06:13:35;6.27;;;2.43;;
28174;SDS011;59417;44.788;10.334;2022-09-09T06:16:05;4.13;;;2.00;;
28174;SDS011;59417;44.788;10.334;2022-09-09T06:18:32;6.38;;;2.28;;
28174;SDS011;59417;44.788;10.334;2022-09-09T06:21:02;7.97;;;2.13;;
28174;SDS011;59417;44.788;10.334;2022-09-09T06:23:30;6.90;;;1.92;;
28174;SDS011;59417;44.788;10.334;2022-09-09T06:26:39;7.03;;;2.38;;
28174;SDS011;59417;44.788;10.334;2022-09-09T06:28:49;6.43;;;2.05;;
28174;SDS011;59417;44.788;10.334;2022-09-09T06:31:19;5.18;;;2.40;;
28174;SDS011;59417;44.788;10.334;2022-09-09T06:36:19;3.22;;;1.77;;
28174;SDS011;59417;44.788;10.334;2022-09-09T06:38:46;5.38;;;2.50;;
28174;SDS011;59417;44.788;10.334;2022-09-09T06:41:14;9.23;;;2.30;;
28174;SDS011;59417;44.788;10.334;2022-09-09T06:43:44;4.75;;;2.78;;
28174;SDS011;59417;44.788;10.334;2022-09-09T06:46:12;5.10;;;3.03;;
28174;SDS011;59417;44.788;10.334;2022-09-09T06:48:48;4.50;;;2.58;;
28174;SDS011;59417;44.788;10.334;2022-09-09T06:51:16;4.25;;;2.88;;
28174;SDS011;59417;44.788;10.334;2022-09-09T06:53:55;10.88;;;3.95;;
28174;SDS011;59417;44.788;10.334;2022-09-09T06:58:57;12.10;;;4.05;;
28174;SDS011;59417;44.788;10.334;2022-09-09T07:01:28;14.07;;;7.50;;
28174;SDS011;59417;44.788;10.334;2022-09-09T07:03:59;21.23;;;11.98;;
28174;SDS011;59417;44.788;10.334;2022-09-09T07:06:27;14.23;;;10.02;;
28174;SDS011;59417;44.788;10.334;2022-09-09T07:08:56;17.25;;;9.98;;
28174;SDS011;59417;44.788;10.334;2022-09-09T07:11:27;15.05;;;10.35;;
28174;SDS011;59417;44.788;10.334;2022-09-09T07:16:22;17.17;;;12.50;;
28174;SDS011;59417;44.788;10.334;2022-09-09T07:18:54;25.77;;;14.27;;
28174;SDS011;59417;44.788;10.334;2022-09-09T07:21:24;23.95;;;13.95;;
28174;SDS011;59417;44.788;10.334;2022-09-09T07:23:52;18.05;;;11.70;;
28174;SDS011;59417;44.788;10.334;2022-09-09T07:26:19;18.63;;;11.35;;
28174;SDS011;59417;44.788;10.334;2022-09-09T07:28:47;19.35;;;12.90;;
28174;SDS011;59417;44.788;10.334;2022-09-09T07:31:14;22.45;;;12.95;;
28174;SDS011;59417;44.788;10.334;2022-09-09T07:33:43;22.20;;;14.38;;
28174;SDS011;59417;44.788;10.334;2022-09-09T07:36:10;24.13;;;15.82;;
28174;SDS011;59417;44.788;10.334;2022-09-09T07:38:40;25.02;;;14.75;;
28174;SDS011;59417;44.788;10.334;2022-09-09T07:41:10;29.90;;;17.33;;
28174;SDS011;59417;44.788;10.334;2022-09-09T07:43:41;28.30;;;18.73;;
28174;SDS011;59417;44.788;10.334;2022-09-09T07:46:08;29.77;;;18.58;;
28174;SDS011;59417;44.788;10.334;2022-09-09T07:48:35;32.25;;;19.40;;
28174;SDS011;59417;44.788;10.334;2022-09-09T07:51:09;31.50;;;17.38;;
28174;SDS011;59417;44.788;10.334;2022-09-09T07:53:37;23.48;;;16.17;;
28174;SDS011;59417;44.788;10.334;2022-09-09T07:56:05;29.10;;;16.95;;
28174;SDS011;59417;44.788;10.334;2022-09-09T07:58:36;26.73;;;18.10;;
28174;SDS011;59417;44.788;10.334;2022-09-09T08:01:13;28.40;;;18.38;;
28174;SDS011;59417;44.788;10.334;2022-09-09T08:03:44;29.00;;;18.10;;
28174;SDS011;59417;44.788;10.334;2022-09-09T08:06:11;26.85;;;18.13;;
28174;SDS011;59417;44.788;10.334;2022-09-09T08:08:38;27.52;;;18.92;;
28174;SDS011;59417;44.788;10.334;2022-09-09T08:11:06;30.58;;;20.27;;
28174;SDS011;59417;44.788;10.334;2022-09-09T08:13:37;29.58;;;18.08;;
28174;SDS011;59417;44.788;10.334;2022-09-09T08:16:06;24.48;;;18.50;;
28174;SDS011;59417;44.788;10.334;2022-09-09T08:18:42;28.42;;;19.73;;
28174;SDS011;59417;44.788;10.334;2022-09-09T08:21:09;27.65;;;19.70;;
28174;SDS011;59417;44.788;10.334;2022-09-09T08:23:43;29.40;;;19.75;;
28174;SDS011;59417;44.788;10.334;2022-09-09T08:28:39;29.55;;;20.23;;
28174;SDS011;59417;44.788;10.334;2022-09-09T08:31:16;31.75;;;20.67;;
28174;SDS011;59417;44.788;10.334;2022-09-09T08:33:44;35.65;;;21.27;;
28174;SDS011;59417;44.788;10.334;2022-09-09T08:38:41;37.42;;;21.92;;
28174;SDS011;59417;44.788;10.334;2022-09-09T08:44:31;31.15;;;21.70;;
28174;SDS011;59417;44.788;10.334;2022-09-09T08:52:19;38.10;;;22.50;;
28174;SDS011;59417;44.788;10.334;2022-09-09T08:55:48;32.85;;;23.50;;
28174;SDS011;59417;44.788;10.334;2022-09-09T08:58:09;33.22;;;22.05;;
28174;SDS011;59417;44.788;10.334;2022-09-09T09:11:37;35.83;;;21.88;;
28174;SDS011;59417;44.788;10.334;2022-09-09T09:14:20;36.15;;;20.17;;
28174;SDS011;59417;44.788;10.334;2022-09-09T09:19:40;35.10;;;20.33;;
28174;SDS011;59417;44.788;10.334;2022-09-09T09:30:17;26.35;;;17.45;;
28174;SDS011;59417;44.788;10.334;2022-09-09T09:32:49;36.72;;;21.70;;
28174;SDS011;59417;44.788;10.334;2022-09-09T09:35:19;35.50;;;22.27;;
28174;SDS011;59417;44.788;10.334;2022-09-09T09:37:45;27.42;;;17.88;;
28174;SDS011;59417;44.788;10.334;2022-09-09T09:40:14;33.60;;;19.30;;
28174;SDS011;59417;44.788;10.334;2022-09-09T09:43:16;22.87;;;15.87;;
28174;SDS011;59417;44.788;10.334;2022-09-09T09:45:44;26.25;;;15.65;;
28174;SDS011;59417;44.788;10.334;2022-09-09T09:48:12;29.75;;;16.48;;
28174;SDS011;59417;44.788;10.334;2022-09-09T09:50:49;24.77;;;16.58;;
28174;SDS011;59417;44.788;10.334;2022-09-09T09:53:17;24.73;;;15.52;;
28174;SDS011;59417;44.788;10.334;2022-09-09T09:56:01;23.52;;;14.25;;
28174;SDS011;59417;44.788;10.334;2022-09-09T09:58:31;27.23;;;14.70;;
28174;SDS011;59417;44.788;10.334;2022-09-09T10:01:00;28.95;;;17.95;;
28174;SDS011;59417;44.788;10.334;2022-09-09T10:03:29;27.45;;;16.45;;
28174;SDS011;59417;44.788;10.334;2022-09-09T10:05:57;30.33;;;13.90;;
28174;SDS011;59417;44.788;10.334;2022-09-09T10:08:24;23.75;;;14.23;;
28174;SDS011;59417;44.788;10.334;2022-09-09T10:22:00;23.58;;;16.58;;
28174;SDS011;59417;44.788;10.334;2022-09-09T10:48:46;20.27;;;13.43;;
28174;SDS011;59417;44.788;10.334;2022-09-09T10:57:17;16.38;;;10.98;;
28174;SDS011;59417;44.788;10.334;2022-09-09T10:59:47;21.90;;;8.70;;
28174;SDS011;59417;44.788;10.334;2022-09-09T11:02:27;18.00;;;9.85;;
28174;SDS011;59417;44.788;10.334;2022-09-09T11:13:15;13.73;;;7.90;;
28174;SDS011;59417;44.788;10.334;2022-09-09T11:16:39;11.05;;;6.35;;
28174;SDS011;59417;44.788;10.334;2022-09-09T11:18:42;13.70;;;6.35;;
28174;SDS011;59417;44.788;10.334;2022-09-09T11:21:15;15.57;;;6.45;;
28174;SDS011;59417;44.788;10.334;2022-09-09T11:23:57;10.95;;;6.80;;
28174;SDS011;59417;44.788;10.334;2022-09-09T11:26:48;10.57;;;5.35;;
28174;SDS011;59417;44.788;10.334;2022-09-09T11:29:39;9.80;;;6.47;;
28174;SDS011;59417;44.788;10.334;2022-09-09T11:35:38;10.32;;;5.72;;
28174;SDS011;59417;44.788;10.334;2022-09-09T11:40:54;8.85;;;5.40;;
28174;SDS011;59417;44.788;10.334;2022-09-09T11:43:28;10.98;;;5.10;;
28174;SDS011;59417;44.788;10.334;2022-09-09T11:46:00;9.57;;;5.38;;
28174;SDS011;59417;44.788;10.334;2022-09-09T11:53:30;8.02;;;5.10;;
28174;SDS011;59417;44.788;10.334;2022-09-09T11:56:00;7.95;;;4.07;;
28174;SDS011;59417;44.788;10.334;2022-09-09T11:58:27;11.02;;;4.15;;
28174;SDS011;59417;44.788;10.334;2022-09-09T12:00:57;13.32;;;5.05;;
28174;SDS011;59417;44.788;10.334;2022-09-09T12:06:19;10.93;;;3.75;;
28174;SDS011;59417;44.788;10.334;2022-09-09T12:08:53;12.05;;;3.83;;
28174;SDS011;59417;44.788;10.334;2022-09-09T12:11:26;9.73;;;4.30;;
28174;SDS011;59417;44.788;10.334;2022-09-09T12:13:54;7.45;;;3.72;;
28174;SDS011;59417;44.788;10.334;2022-09-09T12:16:28;6.40;;;3.78;;
28174;SDS011;59417;44.788;10.334;2022-09-09T12:19:15;10.50;;;3.95;;
28174;SDS011;59417;44.788;10.334;2022-09-09T12:22:07;4.60;;;3.38;;
28174;SDS011;59417;44.788;10.334;2022-09-09T12:28:08;9.05;;;2.90;;
28174;SDS011;59417;44.788;10.334;2022-09-09T12:30:49;13.68;;;4.15;;
28174;SDS011;59417;44.788;10.334;2022-09-09T12:33:19;14.40;;;4.13;;
28174;SDS011;59417;44.788;10.334;2022-09-09T12:35:45;26.00;;;6.57;;
28174;SDS011;59417;44.788;10.334;2022-09-09T12:38:37;6.45;;;3.92;;
28174;SDS011;59417;44.788;10.334;2022-09-09T12:41:05;7.80;;;2.72;;
28174;SDS011;59417;44.788;10.334;2022-09-09T12:43:31;5.63;;;3.20;;
28174;SDS011;59417;44.788;10.334;2022-09-09T12:46:01;4.55;;;2.80;;
28174;SDS011;59417;44.788;10.334;2022-09-09T12:48:36;8.43;;;3.60;;
28174;SDS011;59417;44.788;10.334;2022-09-09T12:51:07;4.55;;;2.40;;
28174;SDS011;59417;44.788;10.334;2022-09-09T12:53:50;5.57;;;2.75;;
28174;SDS011;59417;44.788;10.334;2022-09-09T12:56:20;7.88;;;2.80;;
28174;SDS011;59417;44.788;10.334;2022-09-09T12:58:49;5.03;;;2.90;;
28174;SDS011;59417;44.788;10.334;2022-09-09T13:03:58;3.30;;;2.28;;
28174;SDS011;59417;44.788;10.334;2022-09-09T13:06:28;18.98;;;5.10;;
28174;SDS011;59417;44.788;10.334;2022-09-09T13:08:59;11.40;;;4.45;;
28174;SDS011;59417;44.788;10.334;2022-09-09T13:11:28;6.32;;;3.22;;
28174;SDS011;59417;44.788;10.334;2022-09-09T13:14:03;9.65;;;3.63;;
28174;SDS011;59417;44.788;10.334;2022-09-09T13:16:30;4.13;;;2.78;;
28174;SDS011;59417;44.788;10.334;2022-09-09T13:19:06;7.47;;;2.80;;
28174;SDS011;59417;44.788;10.334;2022-09-09T13:21:34;8.38;;;3.00;;
28174;SDS011;59417;44.788;10.334;2022-09-09T13:24:03;5.80;;;2.65;;
28174;SDS011;59417;44.788;10.334;2022-09-09T13:26:33;4.88;;;2.50;;
28174;SDS011;59417;44.788;10.334;2022-09-09T13:29:15;9.45;;;2.80;;
28174;SDS011;59417;44.788;10.334;2022-09-09T13:31:45;8.10;;;2.75;;
28174;SDS011;59417;44.788;10.334;2022-09-09T13:34:33;5.68;;;2.85;;
28174;SDS011;59417;44.788;10.334;2022-09-09T13:36:59;7.60;;;3.35;;
28174;SDS011;59417;44.788;10.334;2022-09-09T13:39:28;5.57;;;2.57;;
28174;SDS011;59417;44.788;10.334;2022-09-09T13:41:54;6.82;;;2.60;;
28174;SDS011;59417;44.788;10.334;2022-09-09T13:44:21;6.28;;;2.75;;
28174;SDS011;59417;44.788;10.334;2022-09-09T13:47:33;5.63;;;3.10;;
28174;SDS011;59417;44.788;10.334;2022-09-09T13:49:39;7.03;;;2.38;;
28174;SDS011;59417;44.788;10.334;2022-09-09T13:52:08;4.90;;;2.50;;
28174;SDS011;59417;44.788;10.334;2022-09-09T13:54:36;8.13;;;3.08;;
28174;SDS011;59417;44.788;10.334;2022-09-09T13:57:01;6.40;;;2.65;;
28174;SDS011;59417;44.788;10.334;2022-09-09T13:59:27;6.32;;;2.55;;
28174;SDS011;59417;44.788;10.334;2022-09-09T14:01:53;4.13;;;2.67;;
28174;SDS011;59417;44.788;10.334;2022-09-09T14:04:19;13.35;;;3.03;;
28174;SDS011;59417;44.788;10.334;2022-09-09T14:06:47;9.05;;;3.05;;
28174;SDS011;59417;44.788;10.334;2022-09-09T14:09:15;4.88;;;2.80;;
28174;SDS011;59417;44.788;10.334;2022-09-09T14:11:43;4.13;;;2.30;;
28174;SDS011;59417;44.788;10.334;2022-09-09T14:14:10;4.72;;;2.72;;
28174;SDS011;59417;44.788;10.334;2022-09-09T14:16:36;4.70;;;2.58;;
28174;SDS011;59417;44.788;10.334;2022-09-09T14:19:03;14.57;;;3.03;;
28174;SDS011;59417;44.788;10.334;2022-09-09T14:21:29;4.75;;;2.13;;
28174;SDS011;59417;44.788;10.334;2022-09-09T14:23:55;6.78;;;2.75;;
28174;SDS011;59417;44.788;10.334;2022-09-09T14:26:23;6.97;;;2.70;;
28174;SDS011;59417;44.788;10.334;2022-09-09T14:28:49;6.32;;;2.28;;
28174;SDS011;59417;44.788;10.334;2022-09-09T14:31:17;7.72;;;3.00;;
28174;SDS011;59417;44.788;10.334;2022-09-09T14:33:43;7.50;;;2.53;;
28174;SDS011;59417;44.788;10.334;2022-09-09T14:36:09;4.53;;;2.50;;
28174;SDS011;59417;44.788;10.334;2022-09-09T14:38:36;5.15;;;2.25;;
28174;SDS011;59417;44.788;10.334;2022-09-09T14:41:08;7.53;;;3.03;;
28174;SDS011;59417;44.788;10.334;2022-09-09T14:43:37;5.65;;;2.70;;
28174;SDS011;59417;44.788;10.334;2022-09-09T14:46:09;4.95;;;2.42;;
28174;SDS011;59417;44.788;10.334;2022-09-09T14:48:37;6.78;;;2.42;;
28174;SDS011;59417;44.788;10.334;2022-09-09T14:51:09;5.07;;;2.33;;
28174;SDS011;59417;44.788;10.334;2022-09-09T14:53:35;5.40;;;2.50;;
28174;SDS011;59417;44.788;10.334;2022-09-09T14:56:08;9.30;;;3.22;;
28174;SDS011;59417;44.788;10.334;2022-09-09T14:58:40;8.73;;;2.83;;
28174;SDS011;59417;44.788;10.334;2022-09-09T15:01:07;5.65;;;2.88;;
28174;SDS011;59417;44.788;10.334;2022-09-09T15:03:36;7.78;;;2.63;;
28174;SDS011;59417;44.788;10.334;2022-09-09T15:06:09;7.28;;;2.92;;
28174;SDS011;59417;44.788;10.334;2022-09-09T15:08:37;6.88;;;2.67;;
28174;SDS011;59417;44.788;10.334;2022-09-09T15:11:04;3.45;;;2.22;;
28174;SDS011;59417;44.788;10.334;2022-09-09T15:13:33;6.93;;;2.53;;
28174;SDS011;59417;44.788;10.334;2022-09-09T15:16:12;8.00;;;2.78;;
28174;SDS011;59417;44.788;10.334;2022-09-09T15:18:39;7.07;;;2.58;;
28174;SDS011;59417;44.788;10.334;2022-09-09T15:21:10;6.50;;;2.75;;
28174;SDS011;59417;44.788;10.334;2022-09-09T15:23:46;8.00;;;2.67;;
28174;SDS011;59417;44.788;10.334;2022-09-09T15:26:16;9.05;;;2.72;;
28174;SDS011;59417;44.788;10.334;2022-09-09T15:28:43;6.47;;;3.58;;
28174;SDS011;59417;44.788;10.334;2022-09-09T15:33:53;7.72;;;2.58;;
28174;SDS011;59417;44.788;10.334;2022-09-09T15:36:27;6.93;;;2.60;;
28174;SDS011;59417;44.788;10.334;2022-09-09T15:38:57;4.05;;;2.60;;
28174;SDS011;59417;44.788;10.334;2022-09-09T15:41:24;9.48;;;2.47;;
28174;SDS011;59417;44.788;10.334;2022-09-09T15:43:51;6.60;;;2.80;;
28174;SDS011;59417;44.788;10.334;2022-09-09T15:46:37;7.10;;;2.28;;
28174;SDS011;59417;44.788;10.334;2022-09-09T15:49:08;6.28;;;3.13;;
28174;SDS011;59417;44.788;10.334;2022-09-09T15:51:39;5.03;;;2.28;;
28174;SDS011;59417;44.788;10.334;2022-09-09T15:54:07;6.50;;;3.15;;
28174;SDS011;59417;44.788;10.334;2022-09-09T15:56:35;5.20;;;2.72;;
28174;SDS011;59417;44.788;10.334;2022-09-09T15:59:01;6.00;;;3.05;;
28174;SDS011;59417;44.788;10.334;2022-09-09T16:03:56;5.97;;;2.63;;
28174;SDS011;59417;44.788;10.334;2022-09-09T16:06:23;8.93;;;3.30;;
28174;SDS011;59417;44.788;10.334;2022-09-09T16:08:50;10.00;;;2.90;;
28174;SDS011;59417;44.788;10.334;2022-09-09T16:11:21;4.85;;;2.92;;
28174;SDS011;59417;44.788;10.334;2022-09-09T16:13:49;6.60;;;2.90;;
28174;SDS011;59417;44.788;10.334;2022-09-09T16:16:16;7.93;;;3.55;;
28174;SDS011;59417;44.788;10.334;2022-09-09T16:18:45;5.25;;;2.83;;
28174;SDS011;59417;44.788;10.334;2022-09-09T16:21:34;6.22;;;3.67;;
28174;SDS011;59417;44.788;10.334;2022-09-09T16:24:00;9.25;;;4.03;;
28174;SDS011;59417;44.788;10.334;2022-09-09T16:26:28;12.20;;;4.22;;
28174;SDS011;59417;44.788;10.334;2022-09-09T16:28:55;6.68;;;3.75;;
28174;SDS011;59417;44.788;10.334;2022-09-09T16:31:23;7.65;;;3.63;;
28174;SDS011;59417;44.788;10.334;2022-09-09T16:33:49;7.78;;;4.05;;
28174;SDS011;59417;44.788;10.334;2022-09-09T16:36:25;8.90;;;3.70;;
28174;SDS011;59417;44.788;10.334;2022-09-09T16:38:52;8.98;;;4.10;;
28174;SDS011;59417;44.788;10.334;2022-09-09T16:41:25;5.90;;;3.60;;
28174;SDS011;59417;44.788;10.334;2022-09-09T16:43:53;10.57;;;4.15;;
28174;SDS011;59417;44.788;10.334;2022-09-09T16:46:20;6.75;;;3.80;;
28174;SDS011;59417;44.788;10.334;2022-09-09T16:48:46;9.30;;;3.85;;
28174;SDS011;59417;44.788;10.334;2022-09-09T16:51:14;8.73;;;4.80;;
28174;SDS011;59417;44.788;10.334;2022-09-09T16:53:40;6.82;;;4.60;;
28174;SDS011;59417;44.788;10.334;2022-09-09T16:56:08;6.75;;;4.60;;
28174;SDS011;59417;44.788;10.334;2022-09-09T16:58:36;12.52;;;4.53;;
28174;SDS011;59417;44.788;10.334;2022-09-09T17:01:02;7.22;;;4.57;;
28174;SDS011;59417;44.788;10.334;2022-09-09T17:03:28;7.18;;;4.10;;
28174;SDS011;59417;44.788;10.334;2022-09-09T17:05:54;7.38;;;4.10;;
28174;SDS011;59417;44.788;10.334;2022-09-09T17:08:20;6.32;;;4.15;;
28174;SDS011;59417;44.788;10.334;2022-09-09T17:10:46;8.65;;;4.10;;
28174;SDS011;59417;44.788;10.334;2022-09-09T17:13:12;12.00;;;4.22;;
28174;SDS011;59417;44.788;10.334;2022-09-09T17:15:39;8.07;;;4.40;;
28174;SDS011;59417;44.788;10.334;2022-09-09T17:18:07;6.28;;;3.65;;
28174;SDS011;59417;44.788;10.334;2022-09-09T17:20:37;11.60;;;3.63;;
28174;SDS011;59417;44.788;10.334;2022-09-09T17:23:03;8.23;;;3.55;;
28174;SDS011;59417;44.788;10.334;2022-09-09T17:25:28;7.03;;;3.00;;
28174;SDS011;59417;44.788;10.334;2022-09-09T17:27:54;5.55;;;3.45;;
28174;SDS011;59417;44.788;10.334;2022-09-09T17:30:19;12.23;;;3.58;;
28174;SDS011;59417;44.788;10.334;2022-09-09T17:32:45;7.15;;;3.13;;
28174;SDS011;59417;44.788;10.334;2022-09-09T17:35:12;8.52;;;3.20;;
28174;SDS011;59417;44.788;10.334;2022-09-09T17:37:37;4.38;;;3.03;;